sensor_id;sensor_type;location;lat;lon;timestamp;P1;durP1;ratioP1;P2;durP2;ratioP2
6101;SDS011;3081;50.584;7.032;2022-12-24T00:01:30;4.97;;;0.70;;
6101;SDS011;3081;50.584;7.032;2022-12-24T00:03:57;8.77;;;2.03;;
6101;SDS011;3081;50.584;7.032;2022-12-24T00:06:24;9.97;;;1.87;;
6101;SDS011;3081;50.584;7.032;2022-12-24T00:08:51;10.40;;;2.00;;
6101;SDS011;3081;50.584;7.032;2022-12-24T00:11:18;5.10;;;1.23;;
6101;SDS011;3081;50.584;7.032;2022-12-24T00:13:47;8.43;;;1.20;;
6101;SDS011;3081;50.584;7.032;2022-12-24T00:16:14;11.30;;;1.50;;
6101;SDS011;3081;50.584;7.032;2022-12-24T00:18:41;7.07;;;1.27;;
6101;SDS011;3081;50.584;7.032;2022-12-24T00:21:08;8.30;;;2.07;;
6101;SDS011;3081;50.584;7.032;2022-12-24T00:23:35;9.50;;;1.70;;
6101;SDS011;3081;50.584;7.032;2022-12-24T00:26:02;11.57;;;2.03;;
6101;SDS011;3081;50.584;7.032;2022-12-24T00:28:29;5.73;;;1.47;;
6101;SDS011;3081;50.584;7.032;2022-12-24T00:30:57;10.17;;;1.87;;
6101;SDS011;3081;50.584;7.032;2022-12-24T00:33:24;6.40;;;1.10;;
6101;SDS011;3081;50.584;7.032;2022-12-24T00:35:52;6.33;;;1.30;;
6101;SDS011;3081;50.584;7.032;2022-12-24T00:38:19;11.70;;;1.37;;
6101;SDS011;3081;50.584;7.032;2022-12-24T00:40:45;3.90;;;0.87;;
6101;SDS011;3081;50.584;7.032;2022-12-24T00:43:12;6.80;;;1.20;;
6101;SDS011;3081;50.584;7.032;2022-12-24T00:45:39;7.97;;;1.43;;
6101;SDS011;3081;50.584;7.032;2022-12-24T00:48:07;4.63;;;1.03;;
6101;SDS011;3081;50.584;7.032;2022-12-24T00:50:34;5.53;;;0.93;;
6101;SDS011;3081;50.584;7.032;2022-12-24T00:53:01;11.93;;;1.70;;
6101;SDS011;3081;50.584;7.032;2022-12-24T00:55:28;10.50;;;1.50;;
6101;SDS011;3081;50.584;7.032;2022-12-24T00:57:55;12.70;;;1.97;;
6101;SDS011;3081;50.584;7.032;2022-12-24T01:00:22;9.60;;;1.80;;
6101;SDS011;3081;50.584;7.032;2022-12-24T01:02:49;5.70;;;1.23;;
6101;SDS011;3081;50.584;7.032;2022-12-24T01:05:17;5.17;;;0.90;;
6101;SDS011;3081;50.584;7.032;2022-12-24T01:07:45;5.23;;;1.50;;
6101;SDS011;3081;50.584;7.032;2022-12-24T01:10:13;8.70;;;1.17;;
6101;SDS011;3081;50.584;7.032;2022-12-24T01:12:42;8.70;;;1.73;;
6101;SDS011;3081;50.584;7.032;2022-12-24T01:15:10;7.03;;;1.57;;
6101;SDS011;3081;50.584;7.032;2022-12-24T01:17:38;5.27;;;1.50;;
6101;SDS011;3081;50.584;7.032;2022-12-24T01:20:06;14.07;;;2.30;;
6101;SDS011;3081;50.584;7.032;2022-12-24T01:22:37;9.47;;;1.53;;
6101;SDS011;3081;50.584;7.032;2022-12-24T01:25:04;6.43;;;1.10;;
6101;SDS011;3081;50.584;7.032;2022-12-24T01:27:32;9.60;;;1.30;;
6101;SDS011;3081;50.584;7.032;2022-12-24T01:29:59;10.37;;;1.73;;
6101;SDS011;3081;50.584;7.032;2022-12-24T01:32:25;5.50;;;1.37;;
6101;SDS011;3081;50.584;7.032;2022-12-24T01:34:52;8.80;;;1.77;;
6101;SDS011;3081;50.584;7.032;2022-12-24T01:37:19;6.67;;;1.67;;
6101;SDS011;3081;50.584;7.032;2022-12-24T01:39:47;7.00;;;1.40;;
6101;SDS011;3081;50.584;7.032;2022-12-24T01:42:18;6.00;;;1.20;;
6101;SDS011;3081;50.584;7.032;2022-12-24T01:48:07;7.90;;;1.43;;
6101;SDS011;3081;50.584;7.032;2022-12-24T01:50:46;5.83;;;1.23;;
6101;SDS011;3081;50.584;7.032;2022-12-24T01:53:15;9.00;;;1.10;;
6101;SDS011;3081;50.584;7.032;2022-12-24T01:55:44;5.63;;;1.60;;
6101;SDS011;3081;50.584;7.032;2022-12-24T01:58:12;4.30;;;1.30;;
6101;SDS011;3081;50.584;7.032;2022-12-24T02:00:43;5.97;;;1.20;;
6101;SDS011;3081;50.584;7.032;2022-12-24T02:03:10;6.97;;;2.10;;
6101;SDS011;3081;50.584;7.032;2022-12-24T02:05:38;15.77;;;1.67;;
6101;SDS011;3081;50.584;7.032;2022-12-24T02:08:11;6.87;;;1.53;;
6101;SDS011;3081;50.584;7.032;2022-12-24T02:10:38;7.20;;;2.03;;
6101;SDS011;3081;50.584;7.032;2022-12-24T02:13:06;9.93;;;1.50;;
6101;SDS011;3081;50.584;7.032;2022-12-24T02:15:36;8.83;;;1.90;;
6101;SDS011;3081;50.584;7.032;2022-12-24T02:18:15;5.10;;;1.10;;
6101;SDS011;3081;50.584;7.032;2022-12-24T02:27:00;11.30;;;1.60;;
6101;SDS011;3081;50.584;7.032;2022-12-24T02:32:31;5.50;;;1.00;;
6101;SDS011;3081;50.584;7.032;2022-12-24T02:35:03;6.83;;;1.27;;
6101;SDS011;3081;50.584;7.032;2022-12-24T02:37:35;8.27;;;1.57;;
6101;SDS011;3081;50.584;7.032;2022-12-24T02:40:05;5.63;;;1.33;;
6101;SDS011;3081;50.584;7.032;2022-12-24T02:42:37;10.30;;;2.20;;
6101;SDS011;3081;50.584;7.032;2022-12-24T02:45:08;4.83;;;1.10;;
6101;SDS011;3081;50.584;7.032;2022-12-24T02:47:38;6.37;;;1.43;;
6101;SDS011;3081;50.584;7.032;2022-12-24T02:50:09;5.17;;;1.40;;
6101;SDS011;3081;50.584;7.032;2022-12-24T02:52:38;11.63;;;1.40;;
6101;SDS011;3081;50.584;7.032;2022-12-24T02:55:07;6.27;;;1.43;;
6101;SDS011;3081;50.584;7.032;2022-12-24T02:57:42;15.80;;;1.53;;
6101;SDS011;3081;50.584;7.032;2022-12-24T03:00:22;13.27;;;1.93;;
6101;SDS011;3081;50.584;7.032;2022-12-24T03:02:54;4.40;;;0.80;;
6101;SDS011;3081;50.584;7.032;2022-12-24T03:05:35;3.60;;;0.87;;
6101;SDS011;3081;50.584;7.032;2022-12-24T03:08:10;4.73;;;0.80;;
6101;SDS011;3081;50.584;7.032;2022-12-24T03:10:41;9.33;;;1.60;;
6101;SDS011;3081;50.584;7.032;2022-12-24T03:13:13;10.40;;;1.40;;
6101;SDS011;3081;50.584;7.032;2022-12-24T03:15:43;9.43;;;1.90;;
6101;SDS011;3081;50.584;7.032;2022-12-24T03:18:13;5.53;;;1.40;;
6101;SDS011;3081;50.584;7.032;2022-12-24T03:20:43;9.50;;;1.57;;
6101;SDS011;3081;50.584;7.032;2022-12-24T03:23:13;7.93;;;1.20;;
6101;SDS011;3081;50.584;7.032;2022-12-24T03:25:41;8.80;;;1.50;;
6101;SDS011;3081;50.584;7.032;2022-12-24T03:28:10;6.00;;;1.03;;
6101;SDS011;3081;50.584;7.032;2022-12-24T03:30:39;3.13;;;0.80;;
6101;SDS011;3081;50.584;7.032;2022-12-24T03:33:08;4.00;;;1.13;;
6101;SDS011;3081;50.584;7.032;2022-12-24T03:35:37;6.90;;;1.47;;
6101;SDS011;3081;50.584;7.032;2022-12-24T03:38:04;6.03;;;1.37;;
6101;SDS011;3081;50.584;7.032;2022-12-24T03:40:31;6.47;;;1.50;;
6101;SDS011;3081;50.584;7.032;2022-12-24T03:42:58;6.87;;;1.77;;
6101;SDS011;3081;50.584;7.032;2022-12-24T03:45:25;10.27;;;1.30;;
6101;SDS011;3081;50.584;7.032;2022-12-24T03:47:52;6.30;;;1.47;;
6101;SDS011;3081;50.584;7.032;2022-12-24T03:50:20;11.30;;;2.10;;
6101;SDS011;3081;50.584;7.032;2022-12-24T03:52:47;10.23;;;1.97;;
6101;SDS011;3081;50.584;7.032;2022-12-24T03:55:14;12.20;;;1.33;;
6101;SDS011;3081;50.584;7.032;2022-12-24T03:57:41;4.33;;;0.80;;
6101;SDS011;3081;50.584;7.032;2022-12-24T04:00:08;9.57;;;1.70;;
6101;SDS011;3081;50.584;7.032;2022-12-24T04:02:36;8.23;;;1.40;;
6101;SDS011;3081;50.584;7.032;2022-12-24T04:05:03;6.17;;;1.40;;
6101;SDS011;3081;50.584;7.032;2022-12-24T04:07:32;9.50;;;1.77;;
6101;SDS011;3081;50.584;7.032;2022-12-24T04:09:59;9.73;;;1.63;;
6101;SDS011;3081;50.584;7.032;2022-12-24T04:12:26;6.67;;;1.30;;
6101;SDS011;3081;50.584;7.032;2022-12-24T04:14:53;9.53;;;1.50;;
6101;SDS011;3081;50.584;7.032;2022-12-24T04:17:20;7.67;;;1.70;;
6101;SDS011;3081;50.584;7.032;2022-12-24T04:19:46;5.40;;;1.40;;
6101;SDS011;3081;50.584;7.032;2022-12-24T04:22:13;9.27;;;2.43;;
6101;SDS011;3081;50.584;7.032;2022-12-24T04:24:42;9.53;;;1.73;;
6101;SDS011;3081;50.584;7.032;2022-12-24T04:27:08;5.23;;;1.30;;
6101;SDS011;3081;50.584;7.032;2022-12-24T04:29:35;6.33;;;1.97;;
6101;SDS011;3081;50.584;7.032;2022-12-24T04:32:02;5.97;;;1.80;;
6101;SDS011;3081;50.584;7.032;2022-12-24T04:34:29;8.17;;;1.97;;
6101;SDS011;3081;50.584;7.032;2022-12-24T04:36:56;6.57;;;1.10;;
6101;SDS011;3081;50.584;7.032;2022-12-24T04:39:23;15.50;;;1.47;;
6101;SDS011;3081;50.584;7.032;2022-12-24T04:41:52;3.77;;;1.40;;
6101;SDS011;3081;50.584;7.032;2022-12-24T04:44:19;9.17;;;3.00;;
6101;SDS011;3081;50.584;7.032;2022-12-24T04:46:45;9.00;;;1.27;;
6101;SDS011;3081;50.584;7.032;2022-12-24T04:49:12;5.33;;;1.47;;
6101;SDS011;3081;50.584;7.032;2022-12-24T04:51:39;4.67;;;1.23;;
6101;SDS011;3081;50.584;7.032;2022-12-24T04:54:06;7.17;;;0.90;;
6101;SDS011;3081;50.584;7.032;2022-12-24T04:56:33;8.73;;;1.40;;
6101;SDS011;3081;50.584;7.032;2022-12-24T04:59:02;10.53;;;1.60;;
6101;SDS011;3081;50.584;7.032;2022-12-24T05:01:30;7.40;;;0.90;;
6101;SDS011;3081;50.584;7.032;2022-12-24T05:03:58;7.53;;;1.50;;
6101;SDS011;3081;50.584;7.032;2022-12-24T05:06:26;3.10;;;1.10;;
6101;SDS011;3081;50.584;7.032;2022-12-24T05:08:56;6.13;;;1.57;;
6101;SDS011;3081;50.584;7.032;2022-12-24T05:11:24;7.77;;;1.30;;
6101;SDS011;3081;50.584;7.032;2022-12-24T05:13:51;7.10;;;1.00;;
6101;SDS011;3081;50.584;7.032;2022-12-24T05:16:21;7.10;;;1.33;;
6101;SDS011;3081;50.584;7.032;2022-12-24T05:18:49;9.47;;;1.53;;
6101;SDS011;3081;50.584;7.032;2022-12-24T05:21:16;3.10;;;0.83;;
6101;SDS011;3081;50.584;7.032;2022-12-24T05:23:44;3.50;;;1.00;;
6101;SDS011;3081;50.584;7.032;2022-12-24T05:26:29;5.10;;;0.80;;
6101;SDS011;3081;50.584;7.032;2022-12-24T05:28:59;6.67;;;2.43;;
6101;SDS011;3081;50.584;7.032;2022-12-24T05:31:29;5.20;;;1.23;;
6101;SDS011;3081;50.584;7.032;2022-12-24T05:33:57;3.47;;;1.03;;
6101;SDS011;3081;50.584;7.032;2022-12-24T05:36:24;3.73;;;0.90;;
6101;SDS011;3081;50.584;7.032;2022-12-24T05:38:51;3.60;;;0.80;;
6101;SDS011;3081;50.584;7.032;2022-12-24T05:41:18;3.93;;;1.07;;
6101;SDS011;3081;50.584;7.032;2022-12-24T05:43:45;6.97;;;1.40;;
6101;SDS011;3081;50.584;7.032;2022-12-24T05:46:13;5.47;;;1.07;;
6101;SDS011;3081;50.584;7.032;2022-12-24T05:48:42;8.50;;;1.70;;
6101;SDS011;3081;50.584;7.032;2022-12-24T05:51:10;4.03;;;1.33;;
6101;SDS011;3081;50.584;7.032;2022-12-24T05:53:38;4.73;;;1.10;;
6101;SDS011;3081;50.584;7.032;2022-12-24T05:56:06;5.70;;;1.70;;
6101;SDS011;3081;50.584;7.032;2022-12-24T05:58:34;4.50;;;1.63;;
6101;SDS011;3081;50.584;7.032;2022-12-24T06:01:02;8.23;;;1.67;;
6101;SDS011;3081;50.584;7.032;2022-12-24T06:03:30;8.57;;;1.73;;
6101;SDS011;3081;50.584;7.032;2022-12-24T06:05:59;7.03;;;1.70;;
6101;SDS011;3081;50.584;7.032;2022-12-24T06:08:27;7.73;;;1.50;;
6101;SDS011;3081;50.584;7.032;2022-12-24T06:10:55;4.77;;;2.30;;
6101;SDS011;3081;50.584;7.032;2022-12-24T06:13:22;7.60;;;1.83;;
6101;SDS011;3081;50.584;7.032;2022-12-24T06:15:50;8.10;;;1.97;;
6101;SDS011;3081;50.584;7.032;2022-12-24T06:18:19;9.93;;;1.90;;
6101;SDS011;3081;50.584;7.032;2022-12-24T06:20:48;6.40;;;1.70;;
6101;SDS011;3081;50.584;7.032;2022-12-24T06:23:17;11.60;;;1.40;;
6101;SDS011;3081;50.584;7.032;2022-12-24T06:25:45;6.50;;;2.30;;
6101;SDS011;3081;50.584;7.032;2022-12-24T06:28:12;7.50;;;2.30;;
6101;SDS011;3081;50.584;7.032;2022-12-24T06:30:39;4.87;;;1.70;;
6101;SDS011;3081;50.584;7.032;2022-12-24T06:33:06;14.15;;;2.28;;
6101;SDS011;3081;50.584;7.032;2022-12-24T06:35:33;10.30;;;3.10;;
6101;SDS011;3081;50.584;7.032;2022-12-24T06:38:00;12.00;;;2.73;;
6101;SDS011;3081;50.584;7.032;2022-12-24T06:40:28;11.20;;;2.90;;
6101;SDS011;3081;50.584;7.032;2022-12-24T06:42:55;10.57;;;2.30;;
6101;SDS011;3081;50.584;7.032;2022-12-24T06:45:22;10.73;;;2.53;;
6101;SDS011;3081;50.584;7.032;2022-12-24T06:47:49;10.57;;;2.37;;
6101;SDS011;3081;50.584;7.032;2022-12-24T06:50:16;6.87;;;2.30;;
6101;SDS011;3081;50.584;7.032;2022-12-24T06:52:43;14.10;;;2.10;;
6101;SDS011;3081;50.584;7.032;2022-12-24T06:55:10;14.10;;;2.20;;
6101;SDS011;3081;50.584;7.032;2022-12-24T06:57:38;5.97;;;1.90;;
6101;SDS011;3081;50.584;7.032;2022-12-24T07:00:06;9.50;;;1.93;;
6101;SDS011;3081;50.584;7.032;2022-12-24T07:02:33;13.10;;;2.70;;
6101;SDS011;3081;50.584;7.032;2022-12-24T07:05:00;9.40;;;2.50;;
6101;SDS011;3081;50.584;7.032;2022-12-24T07:07:27;10.93;;;3.00;;
6101;SDS011;3081;50.584;7.032;2022-12-24T07:09:54;4.17;;;1.30;;
6101;SDS011;3081;50.584;7.032;2022-12-24T07:12:21;7.17;;;1.90;;
6101;SDS011;3081;50.584;7.032;2022-12-24T07:14:49;5.00;;;1.30;;
6101;SDS011;3081;50.584;7.032;2022-12-24T07:17:16;5.40;;;1.73;;
6101;SDS011;3081;50.584;7.032;2022-12-24T07:19:43;10.63;;;2.20;;
6101;SDS011;3081;50.584;7.032;2022-12-24T07:22:10;7.77;;;2.30;;
6101;SDS011;3081;50.584;7.032;2022-12-24T07:24:37;11.00;;;2.60;;
6101;SDS011;3081;50.584;7.032;2022-12-24T07:27:04;18.23;;;2.67;;
6101;SDS011;3081;50.584;7.032;2022-12-24T07:29:31;8.20;;;2.10;;
6101;SDS011;3081;50.584;7.032;2022-12-24T07:31:59;16.97;;;2.87;;
6101;SDS011;3081;50.584;7.032;2022-12-24T07:34:26;7.30;;;2.17;;
6101;SDS011;3081;50.584;7.032;2022-12-24T07:36:53;10.67;;;1.80;;
6101;SDS011;3081;50.584;7.032;2022-12-24T07:39:20;5.67;;;1.50;;
6101;SDS011;3081;50.584;7.032;2022-12-24T07:41:47;6.83;;;1.70;;
6101;SDS011;3081;50.584;7.032;2022-12-24T07:44:14;14.20;;;2.20;;
6101;SDS011;3081;50.584;7.032;2022-12-24T07:46:42;10.53;;;2.20;;
6101;SDS011;3081;50.584;7.032;2022-12-24T07:49:10;7.53;;;1.87;;
6101;SDS011;3081;50.584;7.032;2022-12-24T07:51:37;12.90;;;2.00;;
6101;SDS011;3081;50.584;7.032;2022-12-24T07:54:04;14.47;;;2.43;;
6101;SDS011;3081;50.584;7.032;2022-12-24T07:56:31;11.37;;;2.40;;
6101;SDS011;3081;50.584;7.032;2022-12-24T07:58:58;7.00;;;1.90;;
6101;SDS011;3081;50.584;7.032;2022-12-24T08:01:25;18.60;;;2.50;;
6101;SDS011;3081;50.584;7.032;2022-12-24T08:03:52;14.60;;;2.40;;
6101;SDS011;3081;50.584;7.032;2022-12-24T08:06:20;9.50;;;2.17;;
6101;SDS011;3081;50.584;7.032;2022-12-24T08:08:48;8.23;;;2.37;;
6101;SDS011;3081;50.584;7.032;2022-12-24T08:11:15;7.23;;;1.70;;
6101;SDS011;3081;50.584;7.032;2022-12-24T08:13:42;9.00;;;1.63;;
6101;SDS011;3081;50.584;7.032;2022-12-24T08:16:09;13.80;;;2.70;;
6101;SDS011;3081;50.584;7.032;2022-12-24T08:18:36;7.37;;;1.80;;
6101;SDS011;3081;50.584;7.032;2022-12-24T08:21:05;7.70;;;1.70;;
6101;SDS011;3081;50.584;7.032;2022-12-24T08:23:34;12.23;;;2.17;;
6101;SDS011;3081;50.584;7.032;2022-12-24T08:26:01;15.50;;;2.40;;
6101;SDS011;3081;50.584;7.032;2022-12-24T08:28:31;12.95;;;2.60;;
6101;SDS011;3081;50.584;7.032;2022-12-24T08:30:58;13.70;;;2.47;;
6101;SDS011;3081;50.584;7.032;2022-12-24T08:33:25;11.77;;;2.40;;
6101;SDS011;3081;50.584;7.032;2022-12-24T08:35:53;7.57;;;2.40;;
6101;SDS011;3081;50.584;7.032;2022-12-24T08:38:21;13.40;;;2.33;;
6101;SDS011;3081;50.584;7.032;2022-12-24T08:40:51;12.70;;;2.63;;
6101;SDS011;3081;50.584;7.032;2022-12-24T08:43:19;14.63;;;2.77;;
6101;SDS011;3081;50.584;7.032;2022-12-24T08:45:46;6.20;;;1.23;;
6101;SDS011;3081;50.584;7.032;2022-12-24T08:48:14;14.10;;;2.13;;
6101;SDS011;3081;50.584;7.032;2022-12-24T08:50:41;10.87;;;2.37;;
6101;SDS011;3081;50.584;7.032;2022-12-24T08:53:09;12.90;;;2.30;;
6101;SDS011;3081;50.584;7.032;2022-12-24T08:55:36;13.20;;;2.43;;
6101;SDS011;3081;50.584;7.032;2022-12-24T08:58:06;11.90;;;2.10;;
6101;SDS011;3081;50.584;7.032;2022-12-24T09:00:33;6.87;;;1.83;;
6101;SDS011;3081;50.584;7.032;2022-12-24T09:03:00;6.47;;;1.13;;
6101;SDS011;3081;50.584;7.032;2022-12-24T09:05:27;13.43;;;1.97;;
6101;SDS011;3081;50.584;7.032;2022-12-24T09:07:54;6.40;;;1.17;;
6101;SDS011;3081;50.584;7.032;2022-12-24T09:10:21;9.37;;;1.60;;
6101;SDS011;3081;50.584;7.032;2022-12-24T09:12:48;10.30;;;1.83;;
6101;SDS011;3081;50.584;7.032;2022-12-24T09:15:17;9.00;;;1.40;;
6101;SDS011;3081;50.584;7.032;2022-12-24T09:17:44;7.13;;;1.70;;
6101;SDS011;3081;50.584;7.032;2022-12-24T09:20:11;14.83;;;2.53;;
6101;SDS011;3081;50.584;7.032;2022-12-24T09:22:38;10.10;;;1.57;;
6101;SDS011;3081;50.584;7.032;2022-12-24T09:25:05;13.30;;;1.90;;
6101;SDS011;3081;50.584;7.032;2022-12-24T09:27:34;13.60;;;2.37;;
6101;SDS011;3081;50.584;7.032;2022-12-24T09:30:02;7.40;;;1.80;;
6101;SDS011;3081;50.584;7.032;2022-12-24T09:32:31;12.07;;;2.83;;
6101;SDS011;3081;50.584;7.032;2022-12-24T09:34:58;14.27;;;2.73;;
6101;SDS011;3081;50.584;7.032;2022-12-24T09:37:25;6.93;;;0.90;;
6101;SDS011;3081;50.584;7.032;2022-12-24T09:39:53;7.97;;;1.90;;
6101;SDS011;3081;50.584;7.032;2022-12-24T09:42:23;9.53;;;1.80;;
6101;SDS011;3081;50.584;7.032;2022-12-24T09:44:55;8.43;;;1.40;;
6101;SDS011;3081;50.584;7.032;2022-12-24T09:47:28;8.33;;;1.63;;
6101;SDS011;3081;50.584;7.032;2022-12-24T09:50:04;9.80;;;1.37;;
6101;SDS011;3081;50.584;7.032;2022-12-24T09:52:47;12.67;;;2.30;;
6101;SDS011;3081;50.584;7.032;2022-12-24T09:55:16;17.53;;;2.40;;
6101;SDS011;3081;50.584;7.032;2022-12-24T09:57:49;8.33;;;1.30;;
6101;SDS011;3081;50.584;7.032;2022-12-24T10:00:19;11.60;;;1.57;;
6101;SDS011;3081;50.584;7.032;2022-12-24T10:02:49;7.47;;;1.20;;
6101;SDS011;3081;50.584;7.032;2022-12-24T10:05:17;10.73;;;1.50;;
6101;SDS011;3081;50.584;7.032;2022-12-24T10:07:57;9.10;;;1.93;;
6101;SDS011;3081;50.584;7.032;2022-12-24T10:10:33;11.97;;;2.20;;
6101;SDS011;3081;50.584;7.032;2022-12-24T10:13:07;8.50;;;1.93;;
6101;SDS011;3081;50.584;7.032;2022-12-24T10:15:42;7.20;;;1.57;;
6101;SDS011;3081;50.584;7.032;2022-12-24T10:18:21;8.50;;;1.93;;
6101;SDS011;3081;50.584;7.032;2022-12-24T10:20:58;9.30;;;2.43;;
6101;SDS011;3081;50.584;7.032;2022-12-24T10:23:31;9.80;;;2.00;;
6101;SDS011;3081;50.584;7.032;2022-12-24T10:26:05;9.40;;;1.70;;
6101;SDS011;3081;50.584;7.032;2022-12-24T10:28:39;11.83;;;2.10;;
6101;SDS011;3081;50.584;7.032;2022-12-24T10:31:11;18.53;;;2.30;;
6101;SDS011;3081;50.584;7.032;2022-12-24T10:33:42;14.20;;;2.40;;
6101;SDS011;3081;50.584;7.032;2022-12-24T10:36:10;11.67;;;2.33;;
6101;SDS011;3081;50.584;7.032;2022-12-24T10:38:42;14.20;;;2.87;;
6101;SDS011;3081;50.584;7.032;2022-12-24T10:41:10;12.50;;;2.30;;
6101;SDS011;3081;50.584;7.032;2022-12-24T10:43:38;11.80;;;2.30;;
6101;SDS011;3081;50.584;7.032;2022-12-24T10:46:16;14.40;;;2.57;;
6101;SDS011;3081;50.584;7.032;2022-12-24T10:48:50;11.40;;;2.50;;
6101;SDS011;3081;50.584;7.032;2022-12-24T10:51:21;11.60;;;2.70;;
6101;SDS011;3081;50.584;7.032;2022-12-24T10:53:55;8.73;;;1.70;;
6101;SDS011;3081;50.584;7.032;2022-12-24T10:56:26;16.10;;;3.73;;
6101;SDS011;3081;50.584;7.032;2022-12-24T10:58:53;13.77;;;3.07;;
6101;SDS011;3081;50.584;7.032;2022-12-24T11:01:41;11.93;;;2.37;;
6101;SDS011;3081;50.584;7.032;2022-12-24T11:04:15;5.67;;;1.20;;
6101;SDS011;3081;50.584;7.032;2022-12-24T11:06:51;11.90;;;2.40;;
6101;SDS011;3081;50.584;7.032;2022-12-24T11:09:20;14.07;;;2.50;;
6101;SDS011;3081;50.584;7.032;2022-12-24T11:11:48;10.50;;;2.03;;
6101;SDS011;3081;50.584;7.032;2022-12-24T11:14:16;15.27;;;3.23;;
6101;SDS011;3081;50.584;7.032;2022-12-24T11:16:48;8.10;;;2.60;;
6101;SDS011;3081;50.584;7.032;2022-12-24T11:19:19;14.23;;;2.60;;
6101;SDS011;3081;50.584;7.032;2022-12-24T11:21:57;17.63;;;2.67;;
6101;SDS011;3081;50.584;7.032;2022-12-24T11:24:27;10.97;;;2.23;;
6101;SDS011;3081;50.584;7.032;2022-12-24T11:29:55;10.70;;;2.20;;
6101;SDS011;3081;50.584;7.032;2022-12-24T11:36:09;15.17;;;2.70;;
6101;SDS011;3081;50.584;7.032;2022-12-24T11:38:39;12.10;;;2.33;;
6101;SDS011;3081;50.584;7.032;2022-12-24T11:41:06;13.70;;;2.73;;
6101;SDS011;3081;50.584;7.032;2022-12-24T11:43:45;10.50;;;2.40;;
6101;SDS011;3081;50.584;7.032;2022-12-24T11:46:14;12.17;;;2.40;;
6101;SDS011;3081;50.584;7.032;2022-12-24T11:48:44;10.37;;;2.00;;
6101;SDS011;3081;50.584;7.032;2022-12-24T11:51:20;8.00;;;1.53;;
6101;SDS011;3081;50.584;7.032;2022-12-24T11:53:49;9.00;;;1.73;;
6101;SDS011;3081;50.584;7.032;2022-12-24T11:56:29;11.83;;;2.33;;
6101;SDS011;3081;50.584;7.032;2022-12-24T11:59:02;16.13;;;2.97;;
6101;SDS011;3081;50.584;7.032;2022-12-24T12:01:39;15.40;;;2.60;;
6101;SDS011;3081;50.584;7.032;2022-12-24T12:04:15;13.13;;;2.50;;
6101;SDS011;3081;50.584;7.032;2022-12-24T12:06:47;12.40;;;2.37;;
6101;SDS011;3081;50.584;7.032;2022-12-24T12:09:17;13.33;;;2.37;;
6101;SDS011;3081;50.584;7.032;2022-12-24T12:11:47;11.90;;;2.30;;
6101;SDS011;3081;50.584;7.032;2022-12-24T12:14:19;15.33;;;2.10;;
6101;SDS011;3081;50.584;7.032;2022-12-24T12:16:51;20.23;;;2.80;;
6101;SDS011;3081;50.584;7.032;2022-12-24T12:19:29;13.63;;;2.13;;
6101;SDS011;3081;50.584;7.032;2022-12-24T12:22:03;12.97;;;2.30;;
6101;SDS011;3081;50.584;7.032;2022-12-24T12:24:33;13.27;;;2.60;;
6101;SDS011;3081;50.584;7.032;2022-12-24T12:27:07;16.43;;;3.20;;
6101;SDS011;3081;50.584;7.032;2022-12-24T12:29:43;12.10;;;2.40;;
6101;SDS011;3081;50.584;7.032;2022-12-24T12:32:15;16.30;;;2.43;;
6101;SDS011;3081;50.584;7.032;2022-12-24T12:34:52;10.83;;;2.23;;
6101;SDS011;3081;50.584;7.032;2022-12-24T12:37:28;11.83;;;2.40;;
6101;SDS011;3081;50.584;7.032;2022-12-24T12:40:00;13.07;;;2.27;;
6101;SDS011;3081;50.584;7.032;2022-12-24T12:42:28;14.00;;;2.43;;
6101;SDS011;3081;50.584;7.032;2022-12-24T12:47:57;10.50;;;1.70;;
6101;SDS011;3081;50.584;7.032;2022-12-24T12:50:38;16.50;;;2.57;;
6101;SDS011;3081;50.584;7.032;2022-12-24T12:53:15;11.60;;;2.10;;
6101;SDS011;3081;50.584;7.032;2022-12-24T12:55:55;9.80;;;1.80;;
6101;SDS011;3081;50.584;7.032;2022-12-24T12:58:34;11.60;;;1.83;;
6101;SDS011;3081;50.584;7.032;2022-12-24T13:01:05;17.73;;;1.87;;
6101;SDS011;3081;50.584;7.032;2022-12-24T13:03:46;13.27;;;2.27;;
6101;SDS011;3081;50.584;7.032;2022-12-24T13:09:54;15.10;;;2.03;;
6101;SDS011;3081;50.584;7.032;2022-12-24T13:15:57;18.43;;;2.30;;
6101;SDS011;3081;50.584;7.032;2022-12-24T13:18:41;13.17;;;2.13;;
6101;SDS011;3081;50.584;7.032;2022-12-24T13:21:15;15.87;;;2.60;;
6101;SDS011;3081;50.584;7.032;2022-12-24T13:23:45;10.30;;;1.70;;
6101;SDS011;3081;50.584;7.032;2022-12-24T13:26:14;15.00;;;3.03;;
6101;SDS011;3081;50.584;7.032;2022-12-24T13:28:42;13.23;;;2.40;;
6101;SDS011;3081;50.584;7.032;2022-12-24T13:31:23;13.07;;;2.33;;
6101;SDS011;3081;50.584;7.032;2022-12-24T13:33:52;11.87;;;1.90;;
6101;SDS011;3081;50.584;7.032;2022-12-24T13:36:21;22.60;;;2.47;;
6101;SDS011;3081;50.584;7.032;2022-12-24T13:38:49;16.13;;;2.50;;
6101;SDS011;3081;50.584;7.032;2022-12-24T13:44:27;10.93;;;2.50;;
6101;SDS011;3081;50.584;7.032;2022-12-24T13:47:00;14.03;;;2.93;;
6101;SDS011;3081;50.584;7.032;2022-12-24T13:49:34;14.57;;;2.50;;
6101;SDS011;3081;50.584;7.032;2022-12-24T13:52:04;13.57;;;2.50;;
6101;SDS011;3081;50.584;7.032;2022-12-24T13:54:44;13.10;;;2.00;;
6101;SDS011;3081;50.584;7.032;2022-12-24T13:57:26;11.87;;;2.07;;
6101;SDS011;3081;50.584;7.032;2022-12-24T13:59:59;19.47;;;3.70;;
6101;SDS011;3081;50.584;7.032;2022-12-24T14:02:29;17.73;;;1.93;;
6101;SDS011;3081;50.584;7.032;2022-12-24T14:05:02;22.77;;;2.33;;
6101;SDS011;3081;50.584;7.032;2022-12-24T14:07:32;12.70;;;2.60;;
6101;SDS011;3081;50.584;7.032;2022-12-24T14:10:01;12.60;;;2.20;;
6101;SDS011;3081;50.584;7.032;2022-12-24T14:12:31;17.00;;;2.20;;
6101;SDS011;3081;50.584;7.032;2022-12-24T14:18:25;16.33;;;2.20;;
6101;SDS011;3081;50.584;7.032;2022-12-24T14:20:53;17.30;;;3.67;;
6101;SDS011;3081;50.584;7.032;2022-12-24T14:23:26;13.40;;;2.17;;
6101;SDS011;3081;50.584;7.032;2022-12-24T14:25:59;13.80;;;2.20;;
6101;SDS011;3081;50.584;7.032;2022-12-24T14:28:29;16.83;;;2.33;;
6101;SDS011;3081;50.584;7.032;2022-12-24T14:31:02;14.93;;;2.43;;
6101;SDS011;3081;50.584;7.032;2022-12-24T14:33:32;11.97;;;2.13;;
6101;SDS011;3081;50.584;7.032;2022-12-24T14:36:00;15.00;;;2.40;;
6101;SDS011;3081;50.584;7.032;2022-12-24T14:38:28;13.00;;;2.00;;
6101;SDS011;3081;50.584;7.032;2022-12-24T14:40:58;11.33;;;1.70;;
6101;SDS011;3081;50.584;7.032;2022-12-24T14:43:35;13.07;;;2.40;;
6101;SDS011;3081;50.584;7.032;2022-12-24T14:46:14;15.10;;;2.20;;
6101;SDS011;3081;50.584;7.032;2022-12-24T14:48:50;15.97;;;3.77;;
6101;SDS011;3081;50.584;7.032;2022-12-24T14:51:21;36.40;;;12.30;;
6101;SDS011;3081;50.584;7.032;2022-12-24T14:54:15;48.43;;;23.10;;
6101;SDS011;3081;50.584;7.032;2022-12-24T14:57:11;24.90;;;7.43;;
6101;SDS011;3081;50.584;7.032;2022-12-24T14:59:47;19.67;;;6.57;;
6101;SDS011;3081;50.584;7.032;2022-12-24T15:02:22;14.57;;;3.43;;
6101;SDS011;3081;50.584;7.032;2022-12-24T15:05:04;13.80;;;3.90;;
6101;SDS011;3081;50.584;7.032;2022-12-24T15:07:32;17.10;;;4.10;;
6101;SDS011;3081;50.584;7.032;2022-12-24T15:10:01;12.47;;;2.60;;
6101;SDS011;3081;50.584;7.032;2022-12-24T15:12:30;14.70;;;2.60;;
6101;SDS011;3081;50.584;7.032;2022-12-24T15:14:58;12.70;;;2.40;;
6101;SDS011;3081;50.584;7.032;2022-12-24T15:17:25;29.53;;;11.70;;
6101;SDS011;3081;50.584;7.032;2022-12-24T15:19:52;58.90;;;32.37;;
6101;SDS011;3081;50.584;7.032;2022-12-24T15:22:24;27.60;;;15.17;;
6101;SDS011;3081;50.584;7.032;2022-12-24T15:24:53;16.67;;;6.23;;
6101;SDS011;3081;50.584;7.032;2022-12-24T15:27:21;17.27;;;3.50;;
6101;SDS011;3081;50.584;7.032;2022-12-24T15:29:50;16.13;;;4.50;;
6101;SDS011;3081;50.584;7.032;2022-12-24T15:32:20;23.97;;;6.30;;
6101;SDS011;3081;50.584;7.032;2022-12-24T15:34:48;13.97;;;2.50;;
6101;SDS011;3081;50.584;7.032;2022-12-24T15:37:17;8.37;;;2.53;;
6101;SDS011;3081;50.584;7.032;2022-12-24T15:39:52;11.33;;;2.63;;
6101;SDS011;3081;50.584;7.032;2022-12-24T15:42:20;10.17;;;2.70;;
6101;SDS011;3081;50.584;7.032;2022-12-24T15:44:55;13.73;;;3.00;;
6101;SDS011;3081;50.584;7.032;2022-12-24T15:47:26;13.43;;;2.60;;
6101;SDS011;3081;50.584;7.032;2022-12-24T15:50:02;14.00;;;2.80;;
6101;SDS011;3081;50.584;7.032;2022-12-24T15:52:30;14.03;;;3.00;;
6101;SDS011;3081;50.584;7.032;2022-12-24T15:57:52;10.57;;;2.47;;
6101;SDS011;3081;50.584;7.032;2022-12-24T16:00:20;9.27;;;2.83;;
6101;SDS011;3081;50.584;7.032;2022-12-24T16:02:49;12.27;;;3.70;;